sensor_id;sensor_type;location;lat;lon;timestamp;temperature;humidity
23120;DHT22;11729;50.836;4.330;2023-03-12T00:00:03;7.10;99.90
23120;DHT22;11729;50.836;4.330;2023-03-12T00:02:32;7.00;99.90
23120;DHT22;11729;50.836;4.330;2023-03-12T00:04:58;7.20;99.90
23120;DHT22;11729;50.836;4.330;2023-03-12T00:07:23;7.30;99.90
23120;DHT22;11729;50.836;4.330;2023-03-12T00:09:49;7.40;99.90
23120;DHT22;11729;50.836;4.330;2023-03-12T00:12:15;7.40;99.90
23120;DHT22;11729;50.836;4.330;2023-03-12T00:14:40;7.40;99.90
23120;DHT22;11729;50.836;4.330;2023-03-12T00:17:06;7.40;99.90
23120;DHT22;11729;50.836;4.330;2023-03-12T00:19:32;7.30;99.90
23120;DHT22;11729;50.836;4.330;2023-03-12T00:21:58;7.10;99.90
23120;DHT22;11729;50.836;4.330;2023-03-12T00:24:24;6.90;99.90
23120;DHT22;11729;50.836;4.330;2023-03-12T00:26:49;6.80;99.90
23120;DHT22;11729;50.836;4.330;2023-03-12T00:29:15;6.90;99.90
23120;DHT22;11729;50.836;4.330;2023-03-12T00:31:40;6.90;99.90
23120;DHT22;11729;50.836;4.330;2023-03-12T00:34:06;6.90;99.90
23120;DHT22;11729;50.836;4.330;2023-03-12T00:36:33;6.80;99.90
23120;DHT22;11729;50.836;4.330;2023-03-12T00:38:59;6.70;99.90
23120;DHT22;11729;50.836;4.330;2023-03-12T00:41:26;6.60;99.90
23120;DHT22;11729;50.836;4.330;2023-03-12T00:43:52;6.60;99.90
23120;DHT22;11729;50.836;4.330;2023-03-12T00:46:19;6.70;99.90
23120;DHT22;11729;50.836;4.330;2023-03-12T00:48:45;6.70;99.90
23120;DHT22;11729;50.836;4.330;2023-03-12T00:51:10;6.60;99.90
23120;DHT22;11729;50.836;4.330;2023-03-12T00:53:36;6.50;99.90
23120;DHT22;11729;50.836;4.330;2023-03-12T00:56:04;6.50;99.90
23120;DHT22;11729;50.836;4.330;2023-03-12T00:58:30;6.50;99.90
23120;DHT22;11729;50.836;4.330;2023-03-12T01:00:57;6.50;99.90
23120;DHT22;11729;50.836;4.330;2023-03-12T01:03:23;6.40;99.90
23120;DHT22;11729;50.836;4.330;2023-03-12T01:05:48;6.20;99.90
23120;DHT22;11729;50.836;4.330;2023-03-12T01:08:18;6.20;99.90
23120;DHT22;11729;50.836;4.330;2023-03-12T01:10:44;6.10;99.90
23120;DHT22;11729;50.836;4.330;2023-03-12T01:13:10;6.00;99.90
23120;DHT22;11729;50.836;4.330;2023-03-12T01:15:37;5.70;99.90
23120;DHT22;11729;50.836;4.330;2023-03-12T01:18:02;5.60;99.90
23120;DHT22;11729;50.836;4.330;2023-03-12T01:20:29;5.50;99.90
23120;DHT22;11729;50.836;4.330;2023-03-12T01:22:55;5.40;99.90
23120;DHT22;11729;50.836;4.330;2023-03-12T01:25:21;5.40;99.90
23120;DHT22;11729;50.836;4.330;2023-03-12T01:27:47;5.30;99.90
23120;DHT22;11729;50.836;4.330;2023-03-12T01:30:13;5.40;99.90
23120;DHT22;11729;50.836;4.330;2023-03-12T01:32:39;5.50;99.90
23120;DHT22;11729;50.836;4.330;2023-03-12T01:35:05;5.50;99.90
23120;DHT22;11729;50.836;4.330;2023-03-12T01:37:31;5.50;99.90
23120;DHT22;11729;50.836;4.330;2023-03-12T01:39:57;5.50;99.90
23120;DHT22;11729;50.836;4.330;2023-03-12T01:42:23;5.50;99.90
23120;DHT22;11729;50.836;4.330;2023-03-12T01:44:53;5.60;99.90
23120;DHT22;11729;50.836;4.330;2023-03-12T01:47:19;5.60;99.90
23120;DHT22;11729;50.836;4.330;2023-03-12T01:49:45;5.50;99.90
23120;DHT22;11729;50.836;4.330;2023-03-12T01:52:14;5.50;99.90
23120;DHT22;11729;50.836;4.330;2023-03-12T01:57:51;5.60;99.90
23120;DHT22;11729;50.836;4.330;2023-03-12T02:00:22;5.70;99.90
23120;DHT22;11729;50.836;4.330;2023-03-12T02:02:50;5.70;99.90
23120;DHT22;11729;50.836;4.330;2023-03-12T02:07:58;5.60;99.90
23120;DHT22;11729;50.836;4.330;2023-03-12T02:10:24;5.60;99.90
23120;DHT22;11729;50.836;4.330;2023-03-12T02:12:50;5.50;99.90
23120;DHT22;11729;50.836;4.330;2023-03-12T02:15:16;5.40;99.90
23120;DHT22;11729;50.836;4.330;2023-03-12T02:17:42;5.30;99.90
23120;DHT22;11729;50.836;4.330;2023-03-12T02:23:17;5.30;99.90
23120;DHT22;11729;50.836;4.330;2023-03-12T02:25:48;5.30;99.90
23120;DHT22;11729;50.836;4.330;2023-03-12T02:28:16;5.30;99.90
23120;DHT22;11729;50.836;4.330;2023-03-12T02:30:46;5.30;99.90
23120;DHT22;11729;50.836;4.330;2023-03-12T02:33:12;5.30;99.90
23120;DHT22;11729;50.836;4.330;2023-03-12T02:35:39;5.30;99.90
23120;DHT22;11729;50.836;4.330;2023-03-12T02:38:50;5.50;99.90
23120;DHT22;11729;50.836;4.330;2023-03-12T02:41:26;5.80;99.90
23120;DHT22;11729;50.836;4.330;2023-03-12T02:44:05;5.80;99.90
23120;DHT22;11729;50.836;4.330;2023-03-12T02:46:35;5.60;99.90
23120;DHT22;11729;50.836;4.330;2023-03-12T02:49:03;5.70;99.90
23120;DHT22;11729;50.836;4.330;2023-03-12T02:51:29;5.60;99.90
23120;DHT22;11729;50.836;4.330;2023-03-12T02:53:54;5.60;99.90
23120;DHT22;11729;50.836;4.330;2023-03-12T02:56:26;5.70;99.90
23120;DHT22;11729;50.836;4.330;2023-03-12T02:58:53;5.60;99.90
23120;DHT22;11729;50.836;4.330;2023-03-12T03:01:19;5.70;99.90
23120;DHT22;11729;50.836;4.330;2023-03-12T03:03:45;5.70;99.90
23120;DHT22;11729;50.836;4.330;2023-03-12T03:06:12;5.80;99.90
23120;DHT22;11729;50.836;4.330;2023-03-12T03:08:37;5.80;99.90
23120;DHT22;11729;50.836;4.330;2023-03-12T03:11:05;6.00;99.90
23120;DHT22;11729;50.836;4.330;2023-03-12T03:13:31;6.00;99.90
23120;DHT22;11729;50.836;4.330;2023-03-12T03:15:57;6.00;99.90
23120;DHT22;11729;50.836;4.330;2023-03-12T03:18:24;6.10;99.90
23120;DHT22;11729;50.836;4.330;2023-03-12T03:21:02;6.00;99.90
23120;DHT22;11729;50.836;4.330;2023-03-12T03:23:28;6.00;99.90
23120;DHT22;11729;50.836;4.330;2023-03-12T03:25:54;6.00;99.90
23120;DHT22;11729;50.836;4.330;2023-03-12T03:28:21;6.10;99.90
23120;DHT22;11729;50.836;4.330;2023-03-12T03:30:47;6.10;99.90
23120;DHT22;11729;50.836;4.330;2023-03-12T03:33:13;6.10;99.90
23120;DHT22;11729;50.836;4.330;2023-03-12T03:35:38;6.20;99.90
23120;DHT22;11729;50.836;4.330;2023-03-12T03:38:04;6.30;99.90
23120;DHT22;11729;50.836;4.330;2023-03-12T03:40:30;6.40;99.90
23120;DHT22;11729;50.836;4.330;2023-03-12T03:42:55;6.50;99.90
23120;DHT22;11729;50.836;4.330;2023-03-12T03:45:22;6.60;99.90
23120;DHT22;11729;50.836;4.330;2023-03-12T03:47:49;6.50;99.90
23120;DHT22;11729;50.836;4.330;2023-03-12T03:50:15;6.50;99.90
23120;DHT22;11729;50.836;4.330;2023-03-12T03:52:40;6.50;99.90
23120;DHT22;11729;50.836;4.330;2023-03-12T03:55:06;6.50;99.90
23120;DHT22;11729;50.836;4.330;2023-03-12T03:57:32;6.50;99.90
23120;DHT22;11729;50.836;4.330;2023-03-12T03:59:58;6.30;99.90
23120;DHT22;11729;50.836;4.330;2023-03-12T04:02:25;6.40;99.90
23120;DHT22;11729;50.836;4.330;2023-03-12T04:04:52;6.50;99.90
23120;DHT22;11729;50.836;4.330;2023-03-12T04:07:20;6.60;99.90
23120;DHT22;11729;50.836;4.330;2023-03-12T04:09:47;6.80;99.90
23120;DHT22;11729;50.836;4.330;2023-03-12T04:12:13;6.70;99.90
23120;DHT22;11729;50.836;4.330;2023-03-12T04:14:40;6.60;99.90
23120;DHT22;11729;50.836;4.330;2023-03-12T04:17:06;6.50;99.90
23120;DHT22;11729;50.836;4.330;2023-03-12T04:19:32;6.50;99.90
23120;DHT22;11729;50.836;4.330;2023-03-12T04:21:58;6.80;99.90
23120;DHT22;11729;50.836;4.330;2023-03-12T04:24:24;6.70;99.90
23120;DHT22;11729;50.836;4.330;2023-03-12T04:26:49;6.70;99.90
23120;DHT22;11729;50.836;4.330;2023-03-12T04:29:16;6.80;99.90
23120;DHT22;11729;50.836;4.330;2023-03-12T04:31:43;6.90;99.90
23120;DHT22;11729;50.836;4.330;2023-03-12T04:34:08;6.90;99.90
23120;DHT22;11729;50.836;4.330;2023-03-12T04:36:35;6.90;99.90
23120;DHT22;11729;50.836;4.330;2023-03-12T04:39:01;6.90;99.90
23120;DHT22;11729;50.836;4.330;2023-03-12T04:41:26;6.90;99.90
23120;DHT22;11729;50.836;4.330;2023-03-12T04:43:52;6.80;99.90
23120;DHT22;11729;50.836;4.330;2023-03-12T04:46:18;6.80;99.90
23120;DHT22;11729;50.836;4.330;2023-03-12T04:48:43;6.70;99.90
23120;DHT22;11729;50.836;4.330;2023-03-12T04:51:09;6.70;99.90
23120;DHT22;11729;50.836;4.330;2023-03-12T04:53:35;6.70;99.90
23120;DHT22;11729;50.836;4.330;2023-03-12T04:56:01;6.70;99.90
23120;DHT22;11729;50.836;4.330;2023-03-12T04:58:26;6.80;99.90
23120;DHT22;11729;50.836;4.330;2023-03-12T05:00:52;6.70;99.90
23120;DHT22;11729;50.836;4.330;2023-03-12T05:03:18;6.70;99.90
23120;DHT22;11729;50.836;4.330;2023-03-12T05:05:44;6.80;99.90
23120;DHT22;11729;50.836;4.330;2023-03-12T05:08:10;6.90;99.90
23120;DHT22;11729;50.836;4.330;2023-03-12T05:10:37;6.90;99.90
23120;DHT22;11729;50.836;4.330;2023-03-12T05:13:02;6.80;99.90
23120;DHT22;11729;50.836;4.330;2023-03-12T05:15:28;6.80;99.90
23120;DHT22;11729;50.836;4.330;2023-03-12T05:17:55;6.80;99.90
23120;DHT22;11729;50.836;4.330;2023-03-12T05:20:21;6.90;99.90
23120;DHT22;11729;50.836;4.330;2023-03-12T05:22:48;6.90;99.90
23120;DHT22;11729;50.836;4.330;2023-03-12T05:25:13;6.90;99.90
23120;DHT22;11729;50.836;4.330;2023-03-12T05:27:39;7.00;99.90
23120;DHT22;11729;50.836;4.330;2023-03-12T05:30:05;7.10;99.90
23120;DHT22;11729;50.836;4.330;2023-03-12T05:32:31;7.20;99.90
23120;DHT22;11729;50.836;4.330;2023-03-12T05:34:57;7.20;99.90
23120;DHT22;11729;50.836;4.330;2023-03-12T05:37:23;7.30;99.90
23120;DHT22;11729;50.836;4.330;2023-03-12T05:39:48;7.30;99.90
23120;DHT22;11729;50.836;4.330;2023-03-12T05:42:15;7.30;99.90
23120;DHT22;11729;50.836;4.330;2023-03-12T05:44:42;7.30;99.90
23120;DHT22;11729;50.836;4.330;2023-03-12T05:47:08;7.30;99.90
23120;DHT22;11729;50.836;4.330;2023-03-12T05:49:33;7.30;99.90
23120;DHT22;11729;50.836;4.330;2023-03-12T05:51:59;7.40;99.90
23120;DHT22;11729;50.836;4.330;2023-03-12T05:54:25;7.40;99.90
23120;DHT22;11729;50.836;4.330;2023-03-12T05:56:51;7.50;99.90
23120;DHT22;11729;50.836;4.330;2023-03-12T05:59:17;7.50;99.90
23120;DHT22;11729;50.836;4.330;2023-03-12T06:01:43;7.50;99.90
23120;DHT22;11729;50.836;4.330;2023-03-12T06:04:09;7.40;99.90
23120;DHT22;11729;50.836;4.330;2023-03-12T06:06:36;7.40;99.90
23120;DHT22;11729;50.836;4.330;2023-03-12T06:09:03;7.40;99.90
23120;DHT22;11729;50.836;4.330;2023-03-12T06:11:29;7.50;99.90
23120;DHT22;11729;50.836;4.330;2023-03-12T06:13:55;7.50;99.90
23120;DHT22;11729;50.836;4.330;2023-03-12T06:16:23;7.60;99.90
23120;DHT22;11729;50.836;4.330;2023-03-12T06:18:58;7.60;99.90
23120;DHT22;11729;50.836;4.330;2023-03-12T06:21:27;7.70;99.90
23120;DHT22;11729;50.836;4.330;2023-03-12T06:23:53;7.70;99.90
23120;DHT22;11729;50.836;4.330;2023-03-12T06:26:21;7.70;99.90
23120;DHT22;11729;50.836;4.330;2023-03-12T06:28:48;7.60;99.90
23120;DHT22;11729;50.836;4.330;2023-03-12T06:31:15;7.50;99.90
23120;DHT22;11729;50.836;4.330;2023-03-12T06:33:41;7.60;99.90
23120;DHT22;11729;50.836;4.330;2023-03-12T06:36:08;7.70;99.90
23120;DHT22;11729;50.836;4.330;2023-03-12T06:38:34;7.70;99.90
23120;DHT22;11729;50.836;4.330;2023-03-12T06:41:03;7.80;99.90
23120;DHT22;11729;50.836;4.330;2023-03-12T06:43:29;7.80;99.90
23120;DHT22;11729;50.836;4.330;2023-03-12T06:45:57;7.80;99.90
23120;DHT22;11729;50.836;4.330;2023-03-12T06:48:23;7.80;99.90
23120;DHT22;11729;50.836;4.330;2023-03-12T06:50:50;7.80;99.90
23120;DHT22;11729;50.836;4.330;2023-03-12T06:53:16;7.90;99.90
23120;DHT22;11729;50.836;4.330;2023-03-12T06:55:43;7.80;99.90
23120;DHT22;11729;50.836;4.330;2023-03-12T06:58:09;8.00;99.90
23120;DHT22;11729;50.836;4.330;2023-03-12T07:00:35;8.00;99.90
23120;DHT22;11729;50.836;4.330;2023-03-12T07:03:01;8.20;99.90
23120;DHT22;11729;50.836;4.330;2023-03-12T07:05:28;8.20;99.90
23120;DHT22;11729;50.836;4.330;2023-03-12T07:07:54;8.30;99.90
23120;DHT22;11729;50.836;4.330;2023-03-12T07:10:19;8.30;99.90
23120;DHT22;11729;50.836;4.330;2023-03-12T07:12:46;8.40;99.90
23120;DHT22;11729;50.836;4.330;2023-03-12T07:15:12;8.30;99.90
23120;DHT22;11729;50.836;4.330;2023-03-12T07:17:38;8.40;99.90
23120;DHT22;11729;50.836;4.330;2023-03-12T07:20:04;8.50;99.90
23120;DHT22;11729;50.836;4.330;2023-03-12T07:22:31;8.50;99.90
23120;DHT22;11729;50.836;4.330;2023-03-12T07:24:57;8.60;99.90
23120;DHT22;11729;50.836;4.330;2023-03-12T07:27:24;8.70;99.90
23120;DHT22;11729;50.836;4.330;2023-03-12T07:29:49;8.80;99.90
23120;DHT22;11729;50.836;4.330;2023-03-12T07:32:15;8.90;99.90
23120;DHT22;11729;50.836;4.330;2023-03-12T07:34:41;8.90;99.90
23120;DHT22;11729;50.836;4.330;2023-03-12T07:37:06;9.00;99.90
23120;DHT22;11729;50.836;4.330;2023-03-12T07:39:32;9.00;99.90
23120;DHT22;11729;50.836;4.330;2023-03-12T07:41:58;9.00;99.90
23120;DHT22;11729;50.836;4.330;2023-03-12T07:44:23;9.10;99.90
23120;DHT22;11729;50.836;4.330;2023-03-12T07:46:51;9.30;99.90
23120;DHT22;11729;50.836;4.330;2023-03-12T07:49:17;9.30;99.90
23120;DHT22;11729;50.836;4.330;2023-03-12T07:51:43;9.40;99.90
23120;DHT22;11729;50.836;4.330;2023-03-12T07:54:08;9.30;99.90
23120;DHT22;11729;50.836;4.330;2023-03-12T07:56:34;9.40;99.90
23120;DHT22;11729;50.836;4.330;2023-03-12T07:59:00;9.40;99.90
23120;DHT22;11729;50.836;4.330;2023-03-12T08:01:25;9.40;99.90
23120;DHT22;11729;50.836;4.330;2023-03-12T08:03:57;9.50;99.90
23120;DHT22;11729;50.836;4.330;2023-03-12T08:06:23;9.60;99.90
23120;DHT22;11729;50.836;4.330;2023-03-12T08:08:49;9.60;99.90
23120;DHT22;11729;50.836;4.330;2023-03-12T08:11:15;9.70;99.90
23120;DHT22;11729;50.836;4.330;2023-03-12T08:13:41;9.80;99.90
23120;DHT22;11729;50.836;4.330;2023-03-12T08:16:07;9.70;99.90
23120;DHT22;11729;50.836;4.330;2023-03-12T08:18:33;9.70;99.90
23120;DHT22;11729;50.836;4.330;2023-03-12T08:20:58;9.80;99.90
23120;DHT22;11729;50.836;4.330;2023-03-12T08:23:24;9.80;99.90
23120;DHT22;11729;50.836;4.330;2023-03-12T08:25:51;9.90;99.90
23120;DHT22;11729;50.836;4.330;2023-03-12T08:28:17;10.00;99.90
23120;DHT22;11729;50.836;4.330;2023-03-12T08:30:47;9.90;99.90
23120;DHT22;11729;50.836;4.330;2023-03-12T08:33:13;9.90;99.90
23120;DHT22;11729;50.836;4.330;2023-03-12T08:35:38;10.00;99.90
23120;DHT22;11729;50.836;4.330;2023-03-12T08:38:04;10.10;99.90
23120;DHT22;11729;50.836;4.330;2023-03-12T08:40:30;10.30;99.90
23120;DHT22;11729;50.836;4.330;2023-03-12T08:42:55;10.50;99.90
23120;DHT22;11729;50.836;4.330;2023-03-12T08:45:21;10.80;99.90
23120;DHT22;11729;50.836;4.330;2023-03-12T08:47:46;11.20;99.90
23120;DHT22;11729;50.836;4.330;2023-03-12T08:50:13;11.50;99.90
23120;DHT22;11729;50.836;4.330;2023-03-12T08:52:41;11.40;99.90
23120;DHT22;11729;50.836;4.330;2023-03-12T08:55:07;11.40;99.90
23120;DHT22;11729;50.836;4.330;2023-03-12T08:57:33;11.40;99.90
23120;DHT22;11729;50.836;4.330;2023-03-12T08:59:58;11.50;99.90
23120;DHT22;11729;50.836;4.330;2023-03-12T09:02:24;11.60;99.90
23120;DHT22;11729;50.836;4.330;2023-03-12T09:04:51;11.70;99.90
23120;DHT22;11729;50.836;4.330;2023-03-12T09:07:16;11.80;99.90
23120;DHT22;11729;50.836;4.330;2023-03-12T09:09:46;11.90;99.90
23120;DHT22;11729;50.836;4.330;2023-03-12T09:12:12;12.10;99.90
23120;DHT22;11729;50.836;4.330;2023-03-12T09:14:38;12.40;99.90
23120;DHT22;11729;50.836;4.330;2023-03-12T09:17:04;13.00;99.90
23120;DHT22;11729;50.836;4.330;2023-03-12T09:19:30;13.00;99.90
23120;DHT22;11729;50.836;4.330;2023-03-12T09:21:56;12.90;99.90
23120;DHT22;11729;50.836;4.330;2023-03-12T09:24:22;12.70;99.90
23120;DHT22;11729;50.836;4.330;2023-03-12T09:26:48;12.80;99.90
23120;DHT22;11729;50.836;4.330;2023-03-12T09:29:14;12.90;99.90
23120;DHT22;11729;50.836;4.330;2023-03-12T09:31:41;13.30;99.90
23120;DHT22;11729;50.836;4.330;2023-03-12T09:34:07;13.60;99.90
23120;DHT22;11729;50.836;4.330;2023-03-12T09:36:32;13.70;99.90
23120;DHT22;11729;50.836;4.330;2023-03-12T09:38:58;13.50;99.90
23120;DHT22;11729;50.836;4.330;2023-03-12T09:41:28;13.40;99.90
23120;DHT22;11729;50.836;4.330;2023-03-12T09:44:01;13.70;99.90
23120;DHT22;11729;50.836;4.330;2023-03-12T09:46:36;13.70;99.90
23120;DHT22;11729;50.836;4.330;2023-03-12T09:49:08;13.80;99.90
23120;DHT22;11729;50.836;4.330;2023-03-12T09:51:45;13.60;99.90
23120;DHT22;11729;50.836;4.330;2023-03-12T09:54:31;13.90;99.90
23120;DHT22;11729;50.836;4.330;2023-03-12T09:57:00;13.90;99.90
23120;DHT22;11729;50.836;4.330;2023-03-12T09:59:27;14.00;99.90
23120;DHT22;11729;50.836;4.330;2023-03-12T10:01:59;14.30;99.90
23120;DHT22;11729;50.836;4.330;2023-03-12T10:04:49;14.20;99.90
23120;DHT22;11729;50.836;4.330;2023-03-12T10:07:39;14.10;99.90
23120;DHT22;11729;50.836;4.330;2023-03-12T10:15:45;13.40;99.90
23120;DHT22;11729;50.836;4.330;2023-03-12T10:24:03;13.80;99.90
23120;DHT22;11729;50.836;4.330;2023-03-12T10:26:44;14.20;99.90
23120;DHT22;11729;50.836;4.330;2023-03-12T10:29:31;14.40;99.90
23120;DHT22;11729;50.836;4.330;2023-03-12T10:32:01;14.60;99.90
23120;DHT22;11729;50.836;4.330;2023-03-12T10:34:45;14.80;99.90
23120;DHT22;11729;50.836;4.330;2023-03-12T10:39:44;15.30;99.90
23120;DHT22;11729;50.836;4.330;2023-03-12T10:42:19;15.50;99.90
23120;DHT22;11729;50.836;4.330;2023-03-12T10:44:52;15.50;99.90
23120;DHT22;11729;50.836;4.330;2023-03-12T10:47:35;15.40;99.90
23120;DHT22;11729;50.836;4.330;2023-03-12T10:50:31;15.50;99.90
23120;DHT22;11729;50.836;4.330;2023-03-12T10:53:26;15.30;99.90
23120;DHT22;11729;50.836;4.330;2023-03-12T10:58:25;15.50;99.90
23120;DHT22;11729;50.836;4.330;2023-03-12T11:00:59;15.00;99.90
23120;DHT22;11729;50.836;4.330;2023-03-12T11:03:26;15.20;99.90
23120;DHT22;11729;50.836;4.330;2023-03-12T11:05:54;15.00;99.90
23120;DHT22;11729;50.836;4.330;2023-03-12T11:10:54;15.20;99.90
23120;DHT22;11729;50.836;4.330;2023-03-12T11:13:33;15.20;99.90
23120;DHT22;11729;50.836;4.330;2023-03-12T11:16:02;15.20;99.90
23120;DHT22;11729;50.836;4.330;2023-03-12T11:18:58;15.30;99.90
23120;DHT22;11729;50.836;4.330;2023-03-12T11:21:26;15.00;99.90
23120;DHT22;11729;50.836;4.330;2023-03-12T11:26:36;14.90;99.90
23120;DHT22;11729;50.836;4.330;2023-03-12T11:31:44;14.50;99.90
23120;DHT22;11729;50.836;4.330;2023-03-12T11:34:25;14.50;99.90
23120;DHT22;11729;50.836;4.330;2023-03-12T11:37:13;14.50;99.90
23120;DHT22;11729;50.836;4.330;2023-03-12T11:51:17;15.40;99.90
23120;DHT22;11729;50.836;4.330;2023-03-12T11:56:51;15.20;99.90
23120;DHT22;11729;50.836;4.330;2023-03-12T12:08:07;15.20;99.90
23120;DHT22;11729;50.836;4.330;2023-03-12T12:11:19;14.80;99.90
23120;DHT22;11729;50.836;4.330;2023-03-12T12:16:54;14.40;99.90
23120;DHT22;11729;50.836;4.330;2023-03-12T12:19:42;14.60;99.90
23120;DHT22;11729;50.836;4.330;2023-03-12T12:22:43;15.10;99.90
23120;DHT22;11729;50.836;4.330;2023-03-12T12:25:20;15.80;99.90
23120;DHT22;11729;50.836;4.330;2023-03-12T12:28:22;16.30;99.90
23120;DHT22;11729;50.836;4.330;2023-03-12T12:33:50;16.20;99.90
23120;DHT22;11729;50.836;4.330;2023-03-12T12:36:17;16.40;99.90
23120;DHT22;11729;50.836;4.330;2023-03-12T12:38:46;16.30;99.90
23120;DHT22;11729;50.836;4.330;2023-03-12T12:46:34;16.00;99.90
23120;DHT22;11729;50.836;4.330;2023-03-12T12:52:14;16.20;99.90
23120;DHT22;11729;50.836;4.330;2023-03-12T13:00:13;16.10;99.90
23120;DHT22;11729;50.836;4.330;2023-03-12T13:02:44;16.00;99.90
23120;DHT22;11729;50.836;4.330;2023-03-12T13:05:29;16.00;99.90
23120;DHT22;11729;50.836;4.330;2023-03-12T13:08:06;15.90;99.90
23120;DHT22;11729;50.836;4.330;2023-03-12T13:13:20;15.90;99.90
23120;DHT22;11729;50.836;4.330;2023-03-12T13:15:47;15.50;99.90
23120;DHT22;11729;50.836;4.330;2023-03-12T13:18:25;15.50;99.90
23120;DHT22;11729;50.836;4.330;2023-03-12T13:28:36;15.60;99.90
23120;DHT22;11729;50.836;4.330;2023-03-12T13:33:53;15.60;99.90
23120;DHT22;11729;50.836;4.330;2023-03-12T13:36:26;15.80;99.90
23120;DHT22;11729;50.836;4.330;2023-03-12T13:39:00;16.00;99.90
23120;DHT22;11729;50.836;4.330;2023-03-12T13:47:02;16.40;99.90
23120;DHT22;11729;50.836;4.330;2023-03-12T13:55:19;16.30;99.90
23120;DHT22;11729;50.836;4.330;2023-03-12T13:58:00;16.00;99.90
23120;DHT22;11729;50.836;4.330;2023-03-12T14:00:52;15.70;99.90
23120;DHT22;11729;50.836;4.330;2023-03-12T14:03:28;15.60;99.90
23120;DHT22;11729;50.836;4.330;2023-03-12T14:06:11;15.70;99.90
23120;DHT22;11729;50.836;4.330;2023-03-12T14:11:11;15.80;99.90
23120;DHT22;11729;50.836;4.330;2023-03-12T14:16:30;15.50;99.90
23120;DHT22;11729;50.836;4.330;2023-03-12T14:18:58;15.10;99.90
23120;DHT22;11729;50.836;4.330;2023-03-12T14:21:32;14.80;99.90
23120;DHT22;11729;50.836;4.330;2023-03-12T14:23:59;14.50;99.90
23120;DHT22;11729;50.836;4.330;2023-03-12T14:26:34;14.50;99.90
23120;DHT22;11729;50.836;4.330;2023-03-12T14:29:20;14.60;99.90
23120;DHT22;11729;50.836;4.330;2023-03-12T14:31:48;14.60;99.90
23120;DHT22;11729;50.836;4.330;2023-03-12T14:34:17;14.60;99.90
23120;DHT22;11729;50.836;4.330;2023-03-12T14:37:22;14.70;99.90
23120;DHT22;11729;50.836;4.330;2023-03-12T14:39:57;15.20;99.90
23120;DHT22;11729;50.836;4.330;2023-03-12T14:42:31;15.40;99.90
23120;DHT22;11729;50.836;4.330;2023-03-12T14:45:11;15.30;99.90
23120;DHT22;11729;50.836;4.330;2023-03-12T14:47:43;15.30;99.90
23120;DHT22;11729;50.836;4.330;2023-03-12T14:53:21;15.30;99.90
23120;DHT22;11729;50.836;4.330;2023-03-12T14:56:03;15.20;99.90
23120;DHT22;11729;50.836;4.330;2023-03-12T14:58:29;15.20;99.90
23120;DHT22;11729;50.836;4.330;2023-03-12T15:00:59;15.30;99.90
23120;DHT22;11729;50.836;4.330;2023-03-12T15:03:26;15.10;99.90
23120;DHT22;11729;50.836;4.330;2023-03-12T15:05:54;15.00;99.90
23120;DHT22;11729;50.836;4.330;2023-03-12T15:08:20;14.90;99.90
23120;DHT22;11729;50.836;4.330;2023-03-12T15:10:48;14.60;99.90
23120;DHT22;11729;50.836;4.330;2023-03-12T15:13:16;14.80;99.90
23120;DHT22;11729;50.836;4.330;2023-03-12T15:15:47;14.80;99.90
23120;DHT22;11729;50.836;4.330;2023-03-12T15:18:23;14.70;99.90
23120;DHT22;11729;50.836;4.330;2023-03-12T15:20:50;14.50;99.90
23120;DHT22;11729;50.836;4.330;2023-03-12T15:23:20;14.50;99.90
23120;DHT22;11729;50.836;4.330;2023-03-12T15:26:08;14.40;99.90
23120;DHT22;11729;50.836;4.330;2023-03-12T15:28:34;14.30;99.90
23120;DHT22;11729;50.836;4.330;2023-03-12T15:31:18;14.20;99.90
23120;DHT22;11729;50.836;4.330;2023-03-12T15:33:44;14.30;99.90
23120;DHT22;11729;50.836;4.330;2023-03-12T15:38:45;14.30;99.90
23120;DHT22;11729;50.836;4.330;2023-03-12T15:41:21;14.30;99.90
23120;DHT22;11729;50.836;4.330;2023-03-12T15:43:51;14.60;99.90
23120;DHT22;11729;50.836;4.330;2023-03-12T15:46:19;14.60;99.90
23120;DHT22;11729;50.836;4.330;2023-03-12T15:48:48;14.40;99.90
23120;DHT22;11729;50.836;4.330;2023-03-12T15:51:36;14.40;99.90
23120;DHT22;11729;50.836;4.330;2023-03-12T15:56:42;14.30;99.90
23120;DHT22;11729;50.836;4.330;2023-03-12T16:01:52;14.10;99.90
23120;DHT22;11729;50.836;4.330;2023-03-12T16:04:18;14.10;99.90
23120;DHT22;11729;50.836;4.330;2023-03-12T16:06:45;14.00;99.90
23120;DHT22;11729;50.836;4.330;2023-03-12T16:09:20;14.20;99.90
23120;DHT22;11729;50.836;4.330;2023-03-12T16:11:47;14.10;99.90
23120;DHT22;11729;50.836;4.330;2023-03-12T16:16:45;14.00;99.90
23120;DHT22;11729;50.836;4.330;2023-03-12T16:19:19;13.90;99.90
23120;DHT22;11729;50.836;4.330;2023-03-12T16:21:45;14.00;99.90
23120;DHT22;11729;50.836;4.330;2023-03-12T16:24:11;14.00;99.90
23120;DHT22;11729;50.836;4.330;2023-03-12T16:26:52;13.90;99.90
23120;DHT22;11729;50.836;4.330;2023-03-12T16:29:20;13.70;99.90
23120;DHT22;11729;50.836;4.330;2023-03-12T16:31:54;13.70;99.90
23120;DHT22;11729;50.836;4.330;2023-03-12T16:34:20;13.90;99.90
23120;DHT22;11729;50.836;4.330;2023-03-12T16:36:46;13.90;99.90
23120;DHT22;11729;50.836;4.330;2023-03-12T16:39:11;14.00;99.90
23120;DHT22;11729;50.836;4.330;2023-03-12T16:41:37;13.80;99.90
23120;DHT22;11729;50.836;4.330;2023-03-12T16:44:05;13.80;99.90
23120;DHT22;11729;50.836;4.330;2023-03-12T16:46:32;13.70;99.90
23120;DHT22;11729;50.836;4.330;2023-03-12T16:48:58;13.80;99.90
23120;DHT22;11729;50.836;4.330;2023-03-12T16:51:25;13.80;99.90
23120;DHT22;11729;50.836;4.330;2023-03-12T16:53:53;13.90;99.90
23120;DHT22;11729;50.836;4.330;2023-03-12T16:56:21;13.80;99.90
23120;DHT22;11729;50.836;4.330;2023-03-12T16:58:48;13.70;99.90
23120;DHT22;11729;50.836;4.330;2023-03-12T17:01:16;13.70;99.90
23120;DHT22;11729;50.836;4.330;2023-03-12T17:03:44;13.70;99.90
23120;DHT22;11729;50.836;4.330;2023-03-12T17:06:19;13.70;99.90
23120;DHT22;11729;50.836;4.330;2023-03-12T17:08:45;13.70;99.90
23120;DHT22;11729;50.836;4.330;2023-03-12T17:11:23;13.70;99.90
23120;DHT22;11729;50.836;4.330;2023-03-12T17:14:01;13.70;99.90
23120;DHT22;11729;50.836;4.330;2023-03-12T17:16:28;13.60;99.90
23120;DHT22;11729;50.836;4.330;2023-03-12T17:18:54;13.50;99.90
23120;DHT22;11729;50.836;4.330;2023-03-12T17:21:20;13.50;99.90
23120;DHT22;11729;50.836;4.330;2023-03-12T17:23:48;13.50;99.90
23120;DHT22;11729;50.836;4.330;2023-03-12T17:26:18;13.50;99.90
23120;DHT22;11729;50.836;4.330;2023-03-12T17:28:44;13.40;99.90
23120;DHT22;11729;50.836;4.330;2023-03-12T17:31:09;13.30;99.90
23120;DHT22;11729;50.836;4.330;2023-03-12T17:33:35;13.30;99.90
23120;DHT22;11729;50.836;4.330;2023-03-12T17:36:07;13.20;99.90
23120;DHT22;11729;50.836;4.330;2023-03-12T17:38:33;13.20;99.90
23120;DHT22;11729;50.836;4.330;2023-03-12T17:41:05;13.30;99.90
23120;DHT22;11729;50.836;4.330;2023-03-12T17:43:33;13.20;99.90
23120;DHT22;11729;50.836;4.330;2023-03-12T17:46:04;13.20;99.90
23120;DHT22;11729;50.836;4.330;2023-03-12T17:48:30;13.20;99.90
23120;DHT22;11729;50.836;4.330;2023-03-12T17:50:55;13.20;99.90